Terminal Aerodrome Forecast
Issued by NWS Caribou, ME

Current Version | Previous Version | Text Only | Print | Product List | Glossary On
Versions: 1 2 3 4 5 6 7 8 9 10 11 12 13 14 15 16 17 18 19 20
000 FTUS41 KCAR 011700 TAFBGR TAF KBGR 011720Z 0118/0218 19008KT P6SM SCT250 FM020200 19004KT P6SM SCT250 FM020600 VRB03KT 2SM BR BKN250 FM020700 VRB03KT 1SM BR BKN003 FM021100 VRB03KT 1/2SM FG BKN001 FM021300 20005KT P6SM BKN250=

USA.gov is the U.S. government's official web portal to all federal, state and local government web resources and services.